Michael Mccreery — WDF2469 — position and weather

sailwx.info

Track history (hours):
 
Tides and Currents Weather Stations Pressure Air Temp Water Temp Dewpoint Dewpoint Depression Visibility Wind Speed Wind Dir Waves Ship Positions

Michael Mccreery

Owner: Kirby Inland Marine, LP, Houston, TX. More information available from US FCC via Universal Licensing System and Coast Guard Vessel Documentation Center.

Last reported at 2017-Oct-13 20:28 UTC. Time now 2017-Oct-17 20:13 UTC.
Position N 29°30' W 094°52'.

MMSI: 366986392.

Date/timePositionNaut miles runAvg speedWind from/ knotsBaromVisibWave heightAir tempDewpointWater temp
2017-Oct-13 20:28N 29°30' W 094°52'3 6.2
2017-Oct-13 20:01N 29°32' W 094°54'3 6.2
2017-Oct-13 19:30N 29°35' W 094°56'3 6.2
2017-Oct-13 19:01N 29°37' W 094°58'3 6.4
2017-Oct-13 18:31N 29°40' W 094°59'3 6.1
2017-Oct-13 18:00N 29°43' W 095°01'3 5.4
2017-Oct-13 17:27N 29°45' W 095°04'9 1.1
2017-Oct-13 09:12N 29°43' W 095°14'0 0.0
2017-Oct-13 07:28N 29°43' W 095°14'0 0.0
2017-Oct-13 06:51N 29°43' W 095°14'0 0.0
2017-Oct-13 06:28N 29°43' W 095°14'0 0.0
2017-Oct-13 05:57N 29°43' W 095°14'0 0.0
2017-Oct-13 04:42N 29°43' W 095°14'0 0.0
2017-Oct-13 04:30N 29°43' W 095°14'0 0.0
2017-Oct-13 02:09N 29°43' W 095°14'0 0.0
2017-Oct-13 01:53N 29°43' W 095°14'0 0.0
2017-Oct-13 01:24N 29°43' W 095°14'0 0.0
2017-Oct-13 00:56N 29°43' W 095°14'0 0.0
2017-Oct-13 00:24N 29°43' W 095°14'0 0.0
2017-Oct-13 00:00N 29°43' W 095°14'0 0.0
2017-Oct-12 08:29N 29°43' W 095°14'0 0.2
2017-Oct-12 07:41N 29°43' W 095°14'1 3.5
2017-Oct-12 07:30N 29°44' W 095°13'3 6.4
2017-Oct-12 07:00N 29°45' W 095°10'4 6.3
2017-Oct-12 06:23N 29°45' W 095°06'2 5.1
2017-Oct-12 05:56N 29°44' W 095°03'3 6.5
2017-Oct-12 05:30N 29°42' W 095°01'4 7.4
2017-Oct-12 05:00N 29°39' W 094°58'4 7.9
2017-Oct-12 04:30N 29°36' W 094°57'  
Track history (hours):
 
Tides and Currents Weather Stations Pressure Air Temp Water Temp Dewpoint Dewpoint Depression Visibility Wind Speed Wind Dir Waves Ship Positions

Michael Mccreery

Owner: Kirby Inland Marine, LP, Houston, TX. More information available from US FCC via Universal Licensing System and Coast Guard Vessel Documentation Center.

Last reported at 2017-Oct-13 20:28 UTC. Time now 2017-Oct-17 20:13 UTC.
Position N 29°30' W 094°52'.

MMSI: 366986392.

Date/timePositionNaut miles runAvg speedWind from/ knotsBaromVisibWave heightAir tempDewpointWater temp
2017-Oct-13 20:28N 29°30' W 094°52'3 6.2
2017-Oct-13 20:01N 29°32' W 094°54'3 6.2
2017-Oct-13 19:30N 29°35' W 094°56'3 6.2
2017-Oct-13 19:01N 29°37' W 094°58'3 6.4
2017-Oct-13 18:31N 29°40' W 094°59'3 6.1
2017-Oct-13 18:00N 29°43' W 095°01'3 5.4
2017-Oct-13 17:27N 29°45' W 095°04'9 1.1
2017-Oct-13 09:12N 29°43' W 095°14'0 0.0
2017-Oct-13 07:28N 29°43' W 095°14'0 0.0
2017-Oct-13 06:51N 29°43' W 095°14'0 0.0
2017-Oct-13 06:28N 29°43' W 095°14'0 0.0
2017-Oct-13 05:57N 29°43' W 095°14'0 0.0
2017-Oct-13 04:42N 29°43' W 095°14'0 0.0
2017-Oct-13 04:30N 29°43' W 095°14'0 0.0
2017-Oct-13 02:09N 29°43' W 095°14'0 0.0
2017-Oct-13 01:53N 29°43' W 095°14'0 0.0
2017-Oct-13 01:24N 29°43' W 095°14'0 0.0
2017-Oct-13 00:56N 29°43' W 095°14'0 0.0
2017-Oct-13 00:24N 29°43' W 095°14'0 0.0
2017-Oct-13 00:00N 29°43' W 095°14'0 0.0
2017-Oct-12 08:29N 29°43' W 095°14'0 0.2
2017-Oct-12 07:41N 29°43' W 095°14'1 3.5
2017-Oct-12 07:30N 29°44' W 095°13'3 6.4
2017-Oct-12 07:00N 29°45' W 095°10'4 6.3
2017-Oct-12 06:23N 29°45' W 095°06'2 5.1
2017-Oct-12 05:56N 29°44' W 095°03'3 6.5
2017-Oct-12 05:30N 29°42' W 095°01'4 7.4
2017-Oct-12 05:00N 29°39' W 094°58'4 7.9
2017-Oct-12 04:30N 29°36' W 094°57'  

Dump ship's entire track history